Columbus Air Force Base
KCBM : now visible

Airfield :











YOU CAN JOIN US ON...

 
LOGIN :

Register | Disclaimer

   EN    FR    IT 

 









Legend :    VFR   Marginal VFR   IFR   Intensive IFR   Very Intensive IFR
Visi :
Ceiling :
>= 8 km
>= 3000ft
5 to 8 km
1000 to 3000 ft
1500m to 5 km
500 to 1000 ft
800 to 1500m
200 to 500 ft
< 800m
< 200 ft
Symbols :   Thunderstorms  Fog  Heavy snow  Heavy precipitations  Wind > 20 kt







- Airport Elevation : 219 ft


KCBM - Columbus Air Force Base

CURRENT METAR :
  • 161956Z AUTO 35004KT 10SM OVC011 07/04 A2987 RMK AO2 CIG 010 RWY31C SLP118 T00650036 $

EXPIRED METARs :
  • 161941Z AUTO 00000KT 10SM OVC011 07/04 A2986 RMK AO2 CIG 010 RWY31C SLP115 $
  • 161901Z AUTO 03005KT 10SM OVC010 06/04 A2987 RMK AO2 CIG 009 RWY31C SLP118 $
  • 161756Z AUTO 35007KT 10SM OVC009 06/04 A2990 RMK AO2 CIG 008 RWY31C SLP128 55008
  • 161706Z AUTO 36006KT 10SM OVC008 06/04 A2993 RMK AO2 CIG 007 RWY31C SLP138 $
  • 161656Z AUTO 34005KT 10SM OVC007 06/03 A2992 RMK AO2 SLP135 T00570034 $

TAF AMD TAF KCBM
Valid from the 15 at 23:00 until the 16 at 23:00 UTC


152337Z 1523/1623 18006KT 6000 -RA BKN012 OVC020 510063 QNH2964INS
BECMG 1608/1609 30015G20KT 9999 NSW OVC006 QNH2969INS
BECMG 1614/1615 34009KT 9999 OVC008 QNH2984INS
BECMG 1617/1618 VRB06KT 9999 OVC015 QNH2977INS TX19/1523Z TN05/1614Z LAST NO AMDS AFT 1600 NEXT 1709
KZME FIR / North America



MET'MAP, your aeronautical weather chart ! - Copyright ORBIFLY December 2007 - Disclaimer

ORBIFLY MET'MAP TEAM :

Programming & Development : Alexandra Zaïnal
Concept & Development : Baudouin d'Aumeries
Co-Development & Prog : Marc-Olivier Méhu
Technical & hardware support : Manuel Goepfert

Contact : metmap@orbifly.com




SOURCES & CREDITS :

   NOAA       Earth
Advisory